Time;durP1;ratioP1;P1;durP2;ratioP2;P2;SDS_P1;SDS_P2;PMS_P1;PMS_P2;Temp;Humidity;BMP_temperature;BMP_pressure;BME280_temperature;BME280_humidity;BME280_pressure;Samples;Min_cycle;Max_cycle;Signal;HPM_P1;HPM_P2
2022/05/31 00:00:14;;;;;;;0.40;0.20;;;11.80;89.10;;;;;;4946873;29;20390;-72
2022/05/31 00:02:40;;;;;;;0.40;0.22;;;11.70;87.30;;;;;;4936566;29;20889;-72
2022/05/31 00:05:09;;;;;;;0.40;0.20;;;11.80;87.50;;;;;;4941286;29;20914;-72
2022/05/31 00:07:36;;;;;;;0.40;0.20;;;11.80;88.80;;;;;;4949018;29;20393;-71
2022/05/31 00:10:02;;;;;;;0.40;0.30;;;11.70;86.80;;;;;;4936121;29;20431;-71
2022/05/31 00:12:28;;;;;;;0.40;0.20;;;11.60;88.00;;;;;;4947500;29;20408;-72
2022/05/31 00:14:53;;;;;;;0.40;0.30;;;11.70;88.00;;;;;;4940655;29;20406;-71
2022/05/31 00:17:19;;;;;;;0.40;0.20;;;11.70;88.60;;;;;;4940755;29;20407;-73
2022/05/31 00:19:44;;;;;;;0.40;0.30;;;11.70;89.50;;;;;;4947342;29;20394;-72
2022/05/31 00:22:24;;;;;;;0.40;0.20;;;11.70;90.10;;;;;;4936181;29;20413;-72
2022/05/31 00:24:50;;;;;;;0.50;0.50;;;11.70;90.50;;;;;;4940479;29;20520;-72
2022/05/31 00:27:19;;;;;;;0.40;0.40;;;11.60;89.70;;;;;;4940398;29;20761;-72
2022/05/31 00:29:47;;;;;;;0.40;0.20;;;11.50;91.70;;;;;;4947606;29;20422;-72
2022/05/31 00:32:14;;;;;;;0.40;0.20;;;11.50;91.70;;;;;;4934755;29;20396;-72
2022/05/31 00:34:43;;;;;;;0.40;0.20;;;11.40;91.70;;;;;;4938216;29;20386;-72
2022/05/31 00:37:10;;;;;;;0.40;0.20;;;11.30;93.30;;;;;;4945078;29;20398;-72
2022/05/31 00:39:36;;;;;;;0.40;0.20;;;11.40;93.20;;;;;;4938128;29;20388;-72
2022/05/31 00:42:08;;;;;;;0.40;0.20;;;11.20;93.40;;;;;;4948839;28;20480;-72
2022/05/31 00:44:36;;;;;;;0.60;0.50;;;11.00;93.80;;;;;;4940685;29;20401;-72
2022/05/31 00:47:08;;;;;;;0.40;0.20;;;10.90;94.70;;;;;;4945527;29;20403;-72
2022/05/31 00:49:57;;;;;;;0.40;0.20;;;11.10;95.80;;;;;;4948718;29;20388;-72
2022/05/31 00:52:40;;;;;;;0.40;0.20;;;11.00;94.80;;;;;;4921643;29;20397;-74
2022/05/31 00:55:11;;;;;;;0.40;0.30;;;10.90;96.10;;;;;;4945991;29;20728;-73
2022/05/31 00:57:43;;;;;;;0.40;0.20;;;10.90;96.10;;;;;;4937859;29;20401;-73
2022/05/31 01:00:13;;;;;;;0.40;0.20;;;10.90;97.10;;;;;;4936220;29;20869;-73
2022/05/31 01:02:42;;;;;;;0.40;0.20;;;10.80;97.80;;;;;;4948817;29;20431;-73
2022/05/31 01:05:09;;;;;;;0.40;0.20;;;10.80;99.00;;;;;;4945518;29;20509;-73
2022/05/31 01:07:35;;;;;;;0.40;0.22;;;10.90;99.40;;;;;;4966506;28;20398;-73
2022/05/31 01:10:08;;;;;;;0.40;0.20;;;10.90;99.00;;;;;;4966650;28;20739;-71
2022/05/31 01:12:34;;;;;;;0.47;0.47;;;10.70;98.80;;;;;;4937368;29;20422;-71
2022/05/31 01:15:00;;;;;;;0.40;0.30;;;10.80;98.80;;;;;;4944606;29;20816;-71
2022/05/31 01:17:26;;;;;;;0.40;0.30;;;10.70;99.50;;;;;;4941363;29;20508;-71
2022/05/31 01:19:56;;;;;;;0.40;0.20;;;10.70;99.90;;;;;;4941787;29;20494;-71
2022/05/31 01:22:44;;;;;;;0.40;0.20;;;10.70;99.90;;;;;;4921877;29;20739;-72
2022/05/31 01:25:22;;;;;;;0.40;0.28;;;10.60;99.90;;;;;;4938733;29;20431;-71
2022/05/31 01:28:18;;;;;;;0.43;0.35;;;10.40;99.90;;;;;;4950857;29;20401;-73
2022/05/31 01:30:57;;;;;;;0.40;0.20;;;10.30;99.90;;;;;;4927545;29;20406;-73
2022/05/31 01:33:41;;;;;;;0.40;0.20;;;10.40;99.90;;;;;;4942333;29;20419;-72
2022/05/31 01:36:12;;;;;;;0.40;0.20;;;10.40;99.90;;;;;;4949764;29;20389;-71
2022/05/31 01:39:02;;;;;;;0.40;0.40;;;10.30;99.90;;;;;;4940744;29;20390;-71
2022/05/31 01:41:40;;;;;;;0.40;0.20;;;10.40;99.90;;;;;;4941853;29;20423;-71
2022/05/31 01:44:12;;;;;;;0.40;0.20;;;10.30;99.90;;;;;;4948159;29;20408;-71
2022/05/31 01:46:38;;;;;;;0.40;0.20;;;10.30;99.90;;;;;;4948241;29;20419;-71
2022/05/31 01:49:12;;;;;;;0.40;0.20;;;10.20;99.90;;;;;;4944061;29;20449;-73
2022/05/31 01:51:40;;;;;;;0.40;0.20;;;10.20;99.90;;;;;;4962931;28;20437;-73
2022/05/31 01:54:08;;;;;;;0.40;0.20;;;10.20;99.90;;;;;;4938064;29;20403;-71
2022/05/31 01:56:35;;;;;;;0.40;0.30;;;10.20;99.90;;;;;;4949007;29;20404;-73
2022/05/31 01:59:03;;;;;;;0.40;0.20;;;10.00;99.90;;;;;;4943683;29;20408;-73
2022/05/31 02:01:31;;;;;;;0.40;0.30;;;9.90;99.90;;;;;;4941189;29;20458;-73
2022/05/31 02:03:58;;;;;;;0.40;0.20;;;9.90;99.90;;;;;;4951104;29;20390;-73
2022/05/31 02:06:27;;;;;;;0.40;0.20;;;9.90;99.90;;;;;;4931770;29;20503;-74
2022/05/31 02:08:53;;;;;;;0.40;0.30;;;10.00;99.90;;;;;;4942836;29;20564;-73
2022/05/31 02:11:20;;;;;;;0.60;0.60;;;10.00;99.90;;;;;;4950820;29;20409;-72
2022/05/31 02:13:46;;;;;;;0.40;0.20;;;10.00;99.90;;;;;;4938960;29;20596;-70
2022/05/31 02:16:13;;;;;;;0.40;0.20;;;10.10;99.90;;;;;;4950871;29;20438;-72
2022/05/31 02:21:23;;;;;;;0.40;0.30;;;10.00;99.90;;;;;;4942232;29;20390;-74
2022/05/31 02:23:49;;;;;;;0.40;0.20;;;9.90;99.90;;;;;;4941513;29;20415;-73
2022/05/31 02:26:14;;;;;;;0.40;0.20;;;9.90;99.90;;;;;;4950380;29;20940;-71
2022/05/31 02:28:41;;;;;;;0.40;0.20;;;9.90;99.90;;;;;;4940039;29;20386;-71
2022/05/31 02:31:07;;;;;;;0.40;0.20;;;9.90;99.90;;;;;;4944579;29;20449;-71
2022/05/31 02:33:33;;;;;;;0.40;0.20;;;9.90;99.90;;;;;;4943166;29;20447;-73
2022/05/31 02:35:58;;;;;;;0.40;0.20;;;9.90;99.90;;;;;;4950246;29;20424;-73
2022/05/31 02:38:24;;;;;;;0.40;0.20;;;10.00;99.90;;;;;;4937971;29;20498;-74
2022/05/31 02:40:50;;;;;;;0.40;0.20;;;10.00;99.90;;;;;;4945835;29;20867;-73
2022/05/31 02:43:15;;;;;;;0.40;0.20;;;10.00;99.90;;;;;;4943215;29;20402;-72
2022/05/31 02:45:41;;;;;;;0.40;0.20;;;10.00;99.90;;;;;;4947390;29;20494;-73
2022/05/31 02:48:07;;;;;;;0.40;0.30;;;10.00;99.90;;;;;;4937792;29;20856;-73
2022/05/31 02:50:33;;;;;;;1.20;1.10;;;10.00;99.90;;;;;;4948723;29;20413;-73
2022/05/31 02:52:59;;;;;;;0.40;0.20;;;10.00;99.90;;;;;;4938578;29;20846;-73
2022/05/31 02:55:24;;;;;;;0.40;0.20;;;10.10;99.90;;;;;;4937910;29;20418;-72
2022/05/31 02:57:50;;;;;;;0.40;0.20;;;9.90;99.90;;;;;;4946505;29;20412;-71
2022/05/31 03:00:16;;;;;;;0.40;0.20;;;10.10;99.90;;;;;;4945104;29;20810;-71
2022/05/31 03:02:42;;;;;;;0.40;0.20;;;10.20;99.90;;;;;;4945965;29;21243;-71
2022/05/31 03:05:08;;;;;;;0.40;0.20;;;10.20;99.90;;;;;;4950886;29;20424;-73
2022/05/31 03:07:34;;;;;;;0.40;0.20;;;10.10;99.90;;;;;;4933853;29;20418;-72
2022/05/31 03:09:59;;;;;;;0.40;0.20;;;10.00;99.90;;;;;;4932417;29;20408;-73
2022/05/31 03:12:27;;;;;;;0.40;0.20;;;9.90;99.90;;;;;;4933812;29;20431;-74
2022/05/31 03:14:59;;;;;;;0.40;0.20;;;9.90;99.90;;;;;;4934099;29;20402;-71
2022/05/31 03:17:33;;;;;;;0.40;0.20;;;9.80;99.90;;;;;;4933739;29;20914;-74
2022/05/31 03:20:21;;;;;;;0.40;0.30;;;10.00;99.90;;;;;;4933937;29;20415;-71
2022/05/31 03:23:00;;;;;;;0.40;0.20;;;10.00;99.90;;;;;;4933214;29;20407;-73
2022/05/31 03:25:27;;;;;;;0.40;0.20;;;10.00;99.90;;;;;;4933306;29;20439;-74
2022/05/31 03:27:59;;;;;;;0.60;0.60;;;10.00;99.90;;;;;;4934158;29;20430;-73
2022/05/31 03:30:24;;;;;;;0.40;0.20;;;10.00;99.90;;;;;;4933777;29;20399;-73
2022/05/31 03:32:52;;;;;;;0.40;0.20;;;9.90;99.90;;;;;;4928763;29;20412;-73
2022/05/31 03:35:18;;;;;;;0.47;0.47;;;10.10;99.90;;;;;;4914736;29;20397;-73
2022/05/31 03:37:44;;;;;;;0.40;0.23;;;10.30;99.90;;;;;;4914106;29;20397;-73
2022/05/31 03:40:10;;;;;;;0.40;0.20;;;10.20;99.90;;;;;;4914737;29;20822;-73
2022/05/31 03:42:36;;;;;;;0.40;0.30;;;10.30;99.90;;;;;;4926733;29;20396;-73
2022/05/31 03:45:02;;;;;;;0.40;0.20;;;10.10;99.90;;;;;;4934137;29;20713;-73
2022/05/31 03:47:27;;;;;;;0.40;0.20;;;10.10;99.90;;;;;;4933377;29;20486;-74
2022/05/31 03:49:53;;;;;;;0.40;0.20;;;10.20;99.90;;;;;;4933755;29;20391;-73
2022/05/31 03:52:18;;;;;;;0.40;0.40;;;10.30;99.90;;;;;;4933731;29;20406;-73
2022/05/31 03:54:44;;;;;;;0.40;0.30;;;10.20;99.90;;;;;;4931360;29;20419;-73
2022/05/31 03:57:16;;;;;;;0.40;0.20;;;10.10;99.90;;;;;;4933639;29;20388;-73
2022/05/31 03:59:42;;;;;;;0.40;0.20;;;10.20;99.90;;;;;;4932957;29;20388;-73
2022/05/31 04:02:08;;;;;;;0.40;0.20;;;10.30;99.90;;;;;;4933438;29;20880;-73
2022/05/31 04:04:33;;;;;;;0.40;0.30;;;10.20;99.90;;;;;;4933124;29;20879;-74
2022/05/31 04:07:00;;;;;;;0.40;0.20;;;10.20;99.90;;;;;;4933408;29;20851;-72
2022/05/31 04:09:26;;;;;;;0.40;0.20;;;10.10;99.90;;;;;;4933263;29;20684;-73
2022/05/31 04:11:54;;;;;;;0.40;0.20;;;10.10;99.90;;;;;;4932275;29;20422;-73
2022/05/31 04:14:20;;;;;;;0.40;0.20;;;10.10;99.90;;;;;;4933240;29;20876;-73
2022/05/31 04:16:46;;;;;;;0.40;0.20;;;10.10;99.90;;;;;;4932786;29;20399;-73
2022/05/31 04:19:12;;;;;;;0.40;0.20;;;10.10;99.90;;;;;;4936747;29;20384;-73
2022/05/31 04:21:38;;;;;;;0.40;0.20;;;9.90;99.90;;;;;;4936241;29;20399;-73
2022/05/31 04:24:08;;;;;;;0.60;0.50;;;9.90;99.90;;;;;;4937038;29;20908;-72
2022/05/31 04:26:45;;;;;;;0.40;0.30;;;10.00;99.90;;;;;;4936145;29;20427;-73
2022/05/31 04:29:11;;;;;;;0.40;0.20;;;9.80;99.90;;;;;;4937465;29;20962;-72
2022/05/31 04:31:37;;;;;;;0.40;0.40;;;9.80;99.90;;;;;;4936171;29;20414;-73
2022/05/31 04:34:04;;;;;;;0.40;0.20;;;9.70;99.90;;;;;;4937239;29;20416;-72
2022/05/31 04:36:30;;;;;;;0.40;0.20;;;9.80;99.90;;;;;;4936812;29;20391;-73
2022/05/31 04:38:55;;;;;;;0.70;0.70;;;10.00;99.90;;;;;;4935119;29;20422;-73
2022/05/31 04:41:24;;;;;;;0.40;0.30;;;10.00;99.90;;;;;;4936815;29;20399;-73
2022/05/31 04:43:54;;;;;;;0.40;0.20;;;10.20;99.90;;;;;;4936225;29;20395;-73
2022/05/31 04:46:24;;;;;;;0.40;0.20;;;10.20;99.90;;;;;;4936642;29;20928;-73
2022/05/31 04:48:53;;;;;;;0.60;0.60;;;10.10;99.90;;;;;;4935994;29;20911;-73
2022/05/31 04:51:19;;;;;;;0.40;0.30;;;10.20;99.90;;;;;;4930651;29;20389;-73
2022/05/31 04:53:45;;;;;;;0.40;0.30;;;10.20;99.90;;;;;;4925058;29;20404;-73
2022/05/31 04:56:14;;;;;;;0.40;0.20;;;10.40;99.90;;;;;;4927280;29;20398;-73
2022/05/31 04:58:40;;;;;;;0.40;0.30;;;10.30;99.90;;;;;;4929613;29;20399;-73
2022/05/31 05:01:06;;;;;;;0.40;0.30;;;10.30;99.90;;;;;;4926643;29;20432;-73
2022/05/31 05:03:34;;;;;;;0.40;0.20;;;10.50;99.90;;;;;;4941240;29;20741;-74
2022/05/31 05:06:05;;;;;;;0.40;0.20;;;10.60;99.90;;;;;;4935891;29;20426;-73
2022/05/31 05:08:32;;;;;;;0.40;0.30;;;10.60;99.90;;;;;;4934909;29;20732;-74
2022/05/31 05:11:04;;;;;;;0.40;0.40;;;10.70;99.90;;;;;;4949477;29;21008;-73
2022/05/31 05:13:31;;;;;;;0.40;0.20;;;10.90;99.90;;;;;;4951605;29;20394;-76
2022/05/31 05:15:59;;;;;;;0.40;0.20;;;11.00;99.90;;;;;;4936056;29;20391;-74
2022/05/31 05:18:26;;;;;;;0.40;0.20;;;11.10;99.90;;;;;;4935180;29;20442;-73
2022/05/31 05:20:52;;;;;;;0.40;0.20;;;11.00;99.90;;;;;;4941487;29;20399;-74
2022/05/31 05:23:18;;;;;;;0.70;0.70;;;11.10;99.90;;;;;;4938783;29;20391;-73
2022/05/31 05:25:51;;;;;;;0.40;0.20;;;11.10;99.90;;;;;;4933502;29;20432;-73
2022/05/31 05:31:02;;;;;;;0.40;0.25;;;11.20;99.90;;;;;;4951567;29;20799;-73
2022/05/31 05:33:29;;;;;;;0.40;0.20;;;11.40;99.90;;;;;;4955306;29;20386;-73
2022/05/31 05:35:55;;;;;;;0.40;0.20;;;11.60;99.90;;;;;;4939365;29;21118;-73
2022/05/31 05:38:20;;;;;;;0.40;0.20;;;11.50;99.90;;;;;;4935157;29;20434;-73
2022/05/31 05:40:46;;;;;;;0.40;0.20;;;11.70;99.90;;;;;;4934808;29;20503;-73
2022/05/31 05:43:13;;;;;;;2.30;0.80;;;11.80;99.90;;;;;;4927978;29;20406;-73
2022/05/31 05:45:39;;;;;;;0.40;0.20;;;11.90;99.90;;;;;;4920445;29;20425;-71
2022/05/31 05:48:06;;;;;;;0.40;0.20;;;12.00;99.90;;;;;;4899877;29;20496;-73
2022/05/31 05:50:34;;;;;;;0.40;0.28;;;11.90;99.90;;;;;;4923330;29;20408;-73
2022/05/31 05:53:07;;;;;;;0.40;0.20;;;12.00;99.90;;;;;;4923525;29;20457;-71
2022/05/31 05:55:37;;;;;;;0.40;0.20;;;12.10;99.90;;;;;;4935496;29;20399;-73
2022/05/31 05:58:07;;;;;;;0.40;0.40;;;12.20;99.90;;;;;;4933833;29;20809;-73
2022/05/31 06:00:37;;;;;;;0.40;0.20;;;12.20;99.90;;;;;;4935549;29;20388;-74
2022/05/31 06:03:14;;;;;;;0.40;0.40;;;12.40;99.90;;;;;;4934552;29;20388;-73
2022/05/31 06:05:40;;;;;;;0.40;0.20;;;12.60;99.90;;;;;;4934232;29;20841;-74
2022/05/31 06:08:13;;;;;;;0.40;0.20;;;12.60;99.90;;;;;;4930507;29;20457;-74
2022/05/31 06:10:47;;;;;;;0.40;0.30;;;12.60;99.90;;;;;;4934216;29;20396;-74
2022/05/31 06:13:20;;;;;;;0.40;0.30;;;12.70;99.90;;;;;;4935467;29;20386;-74
2022/05/31 06:15:53;;;;;;;0.40;0.20;;;12.80;99.90;;;;;;4929910;29;20766;-71
2022/05/31 06:18:43;;;;;;;0.52;0.43;;;12.90;99.90;;;;;;4930485;29;20811;-71
2022/05/31 06:21:08;;;;;;;0.40;0.28;;;13.00;99.90;;;;;;4918894;29;20401;-73
2022/05/31 06:23:37;;;;;;;0.40;0.22;;;13.10;99.90;;;;;;4926845;29;20407;-73
2022/05/31 06:26:03;;;;;;;0.50;0.40;;;13.20;99.90;;;;;;4932016;29;20438;-73
2022/05/31 06:28:29;;;;;;;0.40;0.20;;;13.20;99.90;;;;;;4949310;29;20466;-73
2022/05/31 06:30:54;;;;;;;0.40;0.20;;;13.40;99.30;;;;;;4934323;29;20400;-73
2022/05/31 06:33:20;;;;;;;0.40;0.20;;;13.50;99.90;;;;;;4938759;29;20396;-72
2022/05/31 06:35:46;;;;;;;0.40;0.20;;;13.70;99.90;;;;;;4933999;29;20415;-71
2022/05/31 06:38:11;;;;;;;0.40;0.20;;;13.90;99.90;;;;;;4929104;29;20421;-72
2022/05/31 06:40:40;;;;;;;0.40;0.20;;;14.00;99.90;;;;;;4930142;29;20474;-72
2022/05/31 06:43:06;;;;;;;0.40;0.20;;;14.20;99.90;;;;;;4934493;29;20388;-72
2022/05/31 06:45:32;;;;;;;0.57;0.57;;;14.10;96.30;;;;;;4934676;29;20424;-72
2022/05/31 06:47:57;;;;;;;10.10;0.70;;;14.20;98.60;;;;;;4932422;29;20412;-72
2022/05/31 06:50:23;;;;;;;0.40;0.20;;;14.30;98.90;;;;;;4933589;29;20951;-72
2022/05/31 06:58:17;;;;;;;0.50;0.40;;;14.30;95.80;;;;;;4931917;29;20998;-72
2022/05/31 07:00:43;;;;;;;0.40;0.20;;;14.20;95.70;;;;;;4933151;29;20431;-73
2022/05/31 07:03:09;;;;;;;0.40;0.30;;;14.20;95.20;;;;;;4928596;29;20408;-72
2022/05/31 07:05:34;;;;;;;0.40;0.20;;;14.20;93.80;;;;;;4933781;29;20420;-72
2022/05/31 07:08:00;;;;;;;0.40;0.30;;;14.20;92.00;;;;;;4933466;29;20670;-72
2022/05/31 07:10:26;;;;;;;0.40;0.20;;;14.20;94.50;;;;;;4933127;29;20876;-72
2022/05/31 07:12:51;;;;;;;0.40;0.20;;;14.30;92.60;;;;;;4933446;29;20871;-72
2022/05/31 07:15:17;;;;;;;0.40;0.20;;;14.40;92.70;;;;;;4923381;29;20969;-72
2022/05/31 07:17:46;;;;;;;1.40;1.30;;;14.40;92.30;;;;;;4931466;29;20494;-72
2022/05/31 07:20:12;;;;;;;0.43;0.35;;;14.60;91.00;;;;;;4927572;29;20421;-72
2022/05/31 07:22:38;;;;;;;0.40;0.20;;;14.80;90.60;;;;;;4915396;29;20495;-72
2022/05/31 07:25:06;;;;;;;0.40;0.20;;;15.00;89.80;;;;;;4923841;29;20939;-72
2022/05/31 07:27:33;;;;;;;0.40;0.30;;;15.20;89.60;;;;;;4915092;29;20417;-72
2022/05/31 07:29:59;;;;;;;0.40;0.25;;;15.30;89.60;;;;;;4914143;29;20411;-71
2022/05/31 07:32:25;;;;;;;0.40;0.20;;;15.40;86.40;;;;;;4913777;29;20464;-72
2022/05/31 07:34:51;;;;;;;0.40;0.20;;;15.50;87.50;;;;;;4927884;29;20416;-72
2022/05/31 07:37:17;;;;;;;0.40;0.20;;;15.60;86.40;;;;;;4919264;29;20409;-72
2022/05/31 07:39:43;;;;;;;0.40;0.40;;;15.70;86.30;;;;;;4920607;29;20941;-72
2022/05/31 07:42:09;;;;;;;0.40;0.20;;;15.80;84.10;;;;;;4932815;29;20392;-72
2022/05/31 07:44:35;;;;;;;0.40;0.20;;;16.00;83.70;;;;;;4933345;29;20410;-72
2022/05/31 07:47:02;;;;;;;0.40;0.20;;;16.00;84.10;;;;;;4925642;29;20619;-70
2022/05/31 07:49:29;;;;;;;0.40;0.20;;;16.10;83.20;;;;;;4914881;29;20840;-71
2022/05/31 07:51:55;;;;;;;0.40;0.20;;;16.20;82.40;;;;;;4916055;29;20400;-71
2022/05/31 07:54:20;;;;;;;0.40;0.28;;;16.20;81.90;;;;;;4921748;29;20411;-71
2022/05/31 07:56:47;;;;;;;0.40;0.20;;;16.40;80.60;;;;;;4930358;29;20419;-69
2022/05/31 07:59:13;;;;;;;0.40;0.30;;;16.40;79.80;;;;;;4927244;29;20418;-69
2022/05/31 08:01:40;;;;;;;0.40;0.30;;;16.60;79.50;;;;;;4929719;29;20411;-70
2022/05/31 08:04:06;;;;;;;0.40;0.20;;;16.60;78.30;;;;;;4929914;29;20414;-71
2022/05/31 08:06:33;;;;;;;0.40;0.20;;;16.70;78.90;;;;;;4926215;29;22061;-70
2022/05/31 08:08:58;;;;;;;0.40;0.20;;;16.70;76.50;;;;;;4926654;29;20419;-70
2022/05/31 08:11:29;;;;;;;0.40;0.20;;;16.70;76.10;;;;;;4935531;29;20406;-71
2022/05/31 08:13:55;;;;;;;0.40;0.20;;;16.70;77.00;;;;;;4929921;29;20403;-71
2022/05/31 08:16:23;;;;;;;0.40;0.40;;;16.70;78.00;;;;;;4924846;29;20431;-71
2022/05/31 08:18:50;;;;;;;0.40;0.20;;;16.70;79.70;;;;;;4921858;29;20882;-72
2022/05/31 08:21:19;;;;;;;0.40;0.20;;;16.80;80.60;;;;;;4932332;29;20394;-71
2022/05/31 08:23:45;;;;;;;0.40;0.20;;;16.90;79.70;;;;;;4924300;29;20407;-71
2022/05/31 08:26:11;;;;;;;0.40;0.20;;;17.00;80.00;;;;;;4925931;29;20489;-70
2022/05/31 08:28:37;;;;;;;0.40;0.30;;;17.00;79.10;;;;;;4929712;29;20462;-71
2022/05/31 08:31:10;;;;;;;0.40;0.30;;;16.90;77.90;;;;;;4936437;29;20426;-69
2022/05/31 08:33:35;;;;;;;0.50;0.50;;;16.80;79.10;;;;;;4938881;29;20385;-71
2022/05/31 08:36:02;;;;;;;0.40;0.30;;;17.00;79.20;;;;;;4945584;29;20418;-72
2022/05/31 08:38:28;;;;;;;0.40;0.30;;;17.20;79.30;;;;;;4945882;29;20445;-72
2022/05/31 08:41:03;;;;;;;0.40;0.20;;;17.10;76.40;;;;;;4935296;29;20435;-71
2022/05/31 08:43:57;;;;;;;0.40;0.20;;;17.10;76.60;;;;;;4946526;29;20455;-71
2022/05/31 08:46:32;;;;;;;0.40;0.20;;;17.30;73.30;;;;;;4905751;29;20934;-68
2022/05/31 08:51:52;;;;;;;0.40;0.20;;;17.40;74.80;;;;;;4942677;29;20396;-71
2022/05/31 08:52:26;;;;;;;0.40;0.20;;;17.40;75.60;;;;;;4914466;29;20494;-71
2022/05/31 08:57:58;;;;;;;0.40;0.30;;;17.70;74.30;;;;;;4946092;29;20403;-72
2022/05/31 09:00:31;;;;;;;0.40;0.20;;;17.90;73.40;;;;;;4923060;29;20455;-72
2022/05/31 09:03:22;;;;;;;0.40;0.30;;;18.00;73.50;;;;;;4934771;29;20412;-72
2022/05/31 09:05:50;;;;;;;1.70;1.40;;;17.90;72.60;;;;;;4921464;29;20792;-73
2022/05/31 09:08:19;;;;;;;0.70;0.70;;;17.90;72.80;;;;;;4928282;29;20411;-72
2022/05/31 09:10:59;;;;;;;0.60;0.60;;;17.90;72.40;;;;;;4933241;29;20450;-69
2022/05/31 09:13:47;;;;;;;0.40;0.20;;;17.90;72.60;;;;;;4928719;29;20503;-67
2022/05/31 09:16:28;;;;;;;0.40;0.20;;;18.20;71.60;;;;;;4932618;29;20412;-71
2022/05/31 09:18:59;;;;;;;0.70;0.70;;;18.20;70.80;;;;;;4931626;29;20407;-71
2022/05/31 09:21:41;;;;;;;0.40;0.20;;;18.10;71.50;;;;;;4934481;29;20415;-69
2022/05/31 09:24:17;;;;;;;0.40;0.20;;;18.30;69.80;;;;;;4915195;29;20483;-71
2022/05/31 09:27:01;;;;;;;0.40;0.20;;;18.30;68.60;;;;;;4916110;29;20448;-72
2022/05/31 09:29:50;;;;;;;0.40;0.20;;;18.30;69.60;;;;;;4925573;29;20422;-69
2022/05/31 09:32:34;;;;;;;0.40;0.30;;;18.60;70.80;;;;;;4920658;29;20886;-72
2022/05/31 09:35:07;;;;;;;0.40;0.20;;;18.70;69.40;;;;;;4918683;29;20982;-72
2022/05/31 09:37:51;;;;;;;0.40;0.20;;;18.80;68.90;;;;;;4923249;29;20394;-71
2022/05/31 09:40:50;;;;;;;0.40;0.20;;;18.90;68.90;;;;;;4916821;29;20732;-68
2022/05/31 09:43:35;;;;;;;0.40;0.20;;;19.00;67.80;;;;;;4885005;29;20413;-71
2022/05/31 09:46:10;;;;;;;0.60;0.60;;;19.10;67.90;;;;;;4914993;29;20421;-71
2022/05/31 09:48:49;;;;;;;0.40;0.20;;;19.30;66.30;;;;;;4916613;29;20393;-71
2022/05/31 09:51:38;;;;;;;0.40;0.20;;;19.30;67.00;;;;;;4916173;29;20389;-68
2022/05/31 09:57:08;;;;;;;0.40;0.28;;;19.60;65.50;;;;;;4920764;29;20480;-69
2022/05/31 09:59:50;;;;;;;0.40;0.20;;;19.30;65.40;;;;;;4931599;29;20542;-69
2022/05/31 10:02:25;;;;;;;0.40;0.30;;;19.40;65.70;;;;;;4930202;29;20389;-72
2022/05/31 10:05:20;;;;;;;0.40;0.20;;;19.40;65.00;;;;;;4919923;29;20905;-73
2022/05/31 10:07:47;;;;;;;0.40;0.20;;;19.50;65.90;;;;;;4931561;29;20471;-70
2022/05/31 10:10:29;;;;;;;0.40;0.20;;;19.50;66.10;;;;;;4928476;29;20398;-72
2022/05/31 10:13:00;;;;;;;0.40;0.20;;;19.50;66.90;;;;;;4936251;29;20380;-69
2022/05/31 10:15:49;;;;;;;0.40;0.20;;;19.60;64.00;;;;;;4935045;29;20741;-73
2022/05/31 10:18:30;;;;;;;0.40;0.20;;;19.80;65.20;;;;;;4931910;29;20396;-69
2022/05/31 10:21:02;;;;;;;0.40;0.20;;;20.00;63.50;;;;;;4932861;29;20567;-73
2022/05/31 10:23:45;;;;;;;0.40;0.20;;;20.10;64.40;;;;;;4933184;29;20764;-70
2022/05/31 10:26:25;;;;;;;0.40;0.20;;;20.10;64.40;;;;;;4930480;29;20424;-69
2022/05/31 10:28:58;;;;;;;0.40;0.20;;;20.20;64.00;;;;;;4934246;29;20408;-73
2022/05/31 10:31:32;;;;;;;0.40;0.20;;;20.40;63.80;;;;;;4934471;29;20431;-71
2022/05/31 10:34:00;;;;;;;0.40;0.30;;;20.70;63.50;;;;;;4930891;29;20758;-73
2022/05/31 10:36:33;;;;;;;0.40;0.20;;;20.80;62.30;;;;;;4933958;29;20829;-68
2022/05/31 10:39:10;;;;;;;0.50;0.50;;;20.90;59.70;;;;;;4939976;29;20443;-71
2022/05/31 10:41:39;;;;;;;0.40;0.30;;;21.20;62.20;;;;;;4932978;29;20482;-69
2022/05/31 10:44:16;;;;;;;0.40;0.30;;;21.30;59.80;;;;;;4934555;29;20494;-68
2022/05/31 10:46:47;;;;;;;0.40;0.30;;;21.20;58.70;;;;;;4931392;29;20464;-71
2022/05/31 10:49:19;;;;;;;0.40;0.20;;;21.40;58.10;;;;;;4932880;29;20412;-71
2022/05/31 10:51:56;;;;;;;0.40;0.30;;;21.60;58.30;;;;;;4932037;29;21057;-68
2022/05/31 10:54:27;;;;;;;0.40;0.30;;;21.30;57.80;;;;;;4934468;29;20415;-71
2022/05/31 10:57:00;;;;;;;0.50;0.40;;;21.30;59.00;;;;;;4925080;29;20482;-70
2022/05/31 10:59:36;;;;;;;1.50;0.90;;;21.60;58.50;;;;;;4924406;29;20919;-70
2022/05/31 11:02:25;;;;;;;0.40;0.20;;;22.00;57.50;;;;;;4933411;29;20423;-71
2022/05/31 11:04:57;;;;;;;0.40;0.20;;;22.00;57.10;;;;;;4902476;29;20847;-73
2022/05/31 11:14:09;;;;;;;5.10;1.00;;;22.70;56.50;;;;;;4949934;29;20405;-72
2022/05/31 11:17:06;;;;;;;0.40;0.20;;;22.40;56.10;;;;;;4928530;29;20425;-69
2022/05/31 11:20:13;;;;;;;0.50;0.40;;;22.50;56.10;;;;;;4923310;29;20917;-68
2022/05/31 11:23:12;;;;;;;0.40;0.22;;;22.60;55.60;;;;;;4925224;29;20581;-74
2022/05/31 11:26:16;;;;;;;0.40;0.20;;;22.80;55.00;;;;;;4927269;29;20433;-71
2022/05/31 11:29:06;;;;;;;0.40;0.30;;;23.50;55.00;;;;;;4925897;29;20411;-73
2022/05/31 11:31:35;;;;;;;0.40;0.30;;;24.00;54.20;;;;;;4933948;29;20461;-73
2022/05/31 11:34:21;;;;;;;0.70;0.50;;;23.90;53.50;;;;;;4932604;29;20408;-69
2022/05/31 11:36:53;;;;;;;0.40;0.20;;;23.30;51.80;;;;;;4926479;29;20474;-72
2022/05/31 11:39:47;;;;;;;0.40;0.20;;;23.60;52.10;;;;;;4940363;29;20444;-69
2022/05/31 11:42:34;;;;;;;0.40;0.20;;;23.20;50.20;;;;;;4937146;28;20428;-73
2022/05/31 11:45:20;;;;;;;0.40;0.20;;;22.70;50.10;;;;;;4922325;29;20514;-68
2022/05/31 11:48:06;;;;;;;0.40;0.30;;;22.40;50.20;;;;;;4924688;29;20412;-71
2022/05/31 11:58:01;;;;;;;0.40;0.20;;;22.50;51.10;;;;;;4900531;23;20446;-71
2022/05/31 12:00:32;;;;;;;0.40;0.20;;;22.80;50.00;;;;;;4895181;29;20860;-73
2022/05/31 12:03:09;;;;;;;0.40;0.30;;;24.60;49.20;;;;;;4901851;29;20744;-73
2022/05/31 12:05:43;;;;;;;0.40;0.30;;;25.60;48.10;;;;;;4894850;29;20514;-70
2022/05/31 12:08:24;;;;;;;0.40;0.20;;;25.90;47.50;;;;;;4893371;29;20450;-71
2022/05/31 12:10:54;;;;;;;0.40;0.20;;;25.90;46.70;;;;;;4893015;29;20394;-72
2022/05/31 12:13:21;;;;;;;0.40;0.20;;;25.80;47.50;;;;;;4893171;29;20479;-72
2022/05/31 12:15:52;;;;;;;0.40;0.30;;;25.40;47.00;;;;;;4892290;29;20482;-72
2022/05/31 12:18:18;;;;;;;0.40;0.20;;;24.50;49.40;;;;;;4891953;29;20391;-71
2022/05/31 12:21:07;;;;;;;0.40;0.30;;;23.90;50.50;;;;;;4893845;29;20424;-74
2022/05/31 12:23:42;;;;;;;0.40;0.30;;;23.30;50.50;;;;;;4891768;29;20883;-72
2022/05/31 12:26:33;;;;;;;0.40;0.20;;;22.80;52.00;;;;;;4892802;29;20905;-70
2022/05/31 12:29:04;;;;;;;0.40;0.20;;;22.80;52.70;;;;;;4893399;29;20426;-71
2022/05/31 12:31:32;;;;;;;0.40;0.20;;;22.80;52.80;;;;;;4892679;29;20422;-73
2022/05/31 12:34:19;;;;;;;0.40;0.20;;;23.00;52.50;;;;;;4893873;29;20406;-71
2022/05/31 12:37:05;;;;;;;0.40;0.30;;;23.40;51.30;;;;;;4893848;29;20825;-68
2022/05/31 12:39:33;;;;;;;0.40;0.30;;;23.10;51.00;;;;;;4894973;29;20879;-70
2022/05/31 12:42:14;;;;;;;0.40;0.30;;;23.10;52.10;;;;;;4897261;29;20438;-72
2022/05/31 12:44:42;;;;;;;0.40;0.30;;;23.20;54.20;;;;;;4896020;29;20403;-71
2022/05/31 12:47:21;;;;;;;0.40;0.20;;;23.10;53.40;;;;;;4897771;29;20582;-72
2022/05/31 12:49:54;;;;;;;0.40;0.20;;;23.10;53.40;;;;;;4899074;29;20903;-71
2022/05/31 12:55:31;;;;;;;0.40;0.20;;;23.30;53.50;;;;;;4896514;29;20415;-68
2022/05/31 13:00:48;;;;;;;0.40;0.20;;;22.80;52.10;;;;;;4896888;29;20410;-69
2022/05/31 13:03:32;;;;;;;0.40;0.20;;;22.80;51.90;;;;;;4897661;29;20446;-68
2022/05/31 13:06:00;;;;;;;0.40;0.20;;;23.00;52.30;;;;;;4896484;29;20469;-72
2022/05/31 13:08:51;;;;;;;0.40;0.20;;;23.30;53.70;;;;;;4896695;29;20427;-68
2022/05/31 13:20:13;;;;;;;0.40;0.20;;;24.00;51.40;;;;;;4900127;29;20515;-68
2022/05/31 13:22:43;;;;;;;0.40;0.20;;;23.10;50.20;;;;;;4878914;29;20652;-70
2022/05/31 13:25:24;;;;;;;0.40;0.20;;;23.10;51.40;;;;;;4912253;29;20409;-67
2022/05/31 13:27:56;;;;;;;0.40;0.30;;;23.30;50.90;;;;;;4917326;29;20496;-67
2022/05/31 13:30:26;;;;;;;0.40;0.20;;;23.00;50.20;;;;;;4904625;29;20415;-71
2022/05/31 13:32:52;;;;;;;0.40;0.25;;;23.30;50.80;;;;;;4900318;29;20414;-69
2022/05/31 13:35:26;;;;;;;0.40;0.20;;;22.90;50.90;;;;;;4917292;29;20404;-72
2022/05/31 13:38:11;;;;;;;0.40;0.20;;;22.90;50.00;;;;;;4912933;29;20549;-72
2022/05/31 13:40:46;;;;;;;0.40;0.20;;;22.80;49.10;;;;;;4902505;29;20478;-70
2022/05/31 13:43:48;;;;;;;0.40;0.20;;;23.00;49.00;;;;;;4901364;29;20837;-72
2022/05/31 13:46:38;;;;;;;0.40;0.20;;;23.50;49.20;;;;;;4914878;29;20774;-73
2022/05/31 13:49:10;;;;;;;0.40;0.20;;;23.50;48.90;;;;;;4897868;29;20544;-71
2022/05/31 13:51:36;;;;;;;0.40;0.20;;;23.50;49.30;;;;;;4895567;29;20881;-70
2022/05/31 13:54:12;;;;;;;0.40;0.20;;;23.10;48.90;;;;;;4926287;29;20496;-71
2022/05/31 13:56:38;;;;;;;0.40;0.20;;;22.90;48.80;;;;;;4878738;29;20404;-70